Main page
METAR-TAF:

Airports :

Nice, France

Nice Côte d'Azur Airport

latitude: 43-39N, longitude: 007-12E, elevation: 4 m

Current weather observation

The report was made 26 minutes ago, at 20:00 UTC
Wind 6 kt from the Northwest
Temperature 20°C
Humidity 64%
Pressure 1028 hPa
Visibility 10 km or more
no clouds below 1500 m and no cumulonimbus

METAR: LFMN 282000Z 32006KT CAVOK 20/13 Q1028 NOSIG

Time: 22:26 (20:26 UTC)

Forecast

The report was made 6 hours and 26 minutes ago, at 14:00 UTC
Forecast valid from 28 at 15 UTC to 29 at 21 UTC
Wind 4 kt from the South/Southeast
Visibility 10 km or more
no clouds below 1500 m and no cumulonimbus
Becoming
from 28 at 19 UTC to 28 at 21 UTC
Wind 10 kt from the North/Northwest
Becoming
from 29 at 06 UTC to 29 at 08 UTC
Wind 8 kt from the South/Southeast

TAF: LFMN 281400Z 2815/2921 16004KT CAVOK BECMG 2819/2821 34010KT BECMG 2906/2908 16008KT

METAR-TAF

Weather observations and forecasts of more than 4000 airports (METAR and TAF reports).

The available stations are represented by yellow and red dots on the map.

Hover mouse over dot to see the name of the station.

Then click to see weather observations and forecasts.

To change the map : click on the green buttons with a black cross to zoom in, on the green button with a dash to zoom out, or on the green arrows for adjacent maps.


METAR-TAF: